sensor_id;sensor_type;location;lat;lon;timestamp;temperature;humidity
19646;DHT22;9971;52.446;13.452;2023-03-01T00:00:30;8.50;99.90
19646;DHT22;9971;52.446;13.452;2023-03-01T00:05:32;8.90;99.90
19646;DHT22;9971;52.446;13.452;2023-03-01T00:10:35;9.30;99.90
19646;DHT22;9971;52.446;13.452;2023-03-01T00:15:38;9.60;99.90
19646;DHT22;9971;52.446;13.452;2023-03-01T00:20:40;9.90;99.90
19646;DHT22;9971;52.446;13.452;2023-03-01T00:25:42;10.20;99.90
19646;DHT22;9971;52.446;13.452;2023-03-01T00:30:44;10.50;99.90
19646;DHT22;9971;52.446;13.452;2023-03-01T00:35:47;10.70;99.90
19646;DHT22;9971;52.446;13.452;2023-03-01T00:40:49;10.90;99.90
19646;DHT22;9971;52.446;13.452;2023-03-01T00:45:52;11.20;99.90
19646;DHT22;9971;52.446;13.452;2023-03-01T00:50:54;11.40;99.90
19646;DHT22;9971;52.446;13.452;2023-03-01T00:55:57;11.60;99.90
19646;DHT22;9971;52.446;13.452;2023-03-01T01:00:58;11.80;99.90
19646;DHT22;9971;52.446;13.452;2023-03-01T01:06:01;11.90;99.90
19646;DHT22;9971;52.446;13.452;2023-03-01T01:11:03;12.10;99.70
19646;DHT22;9971;52.446;13.452;2023-03-01T01:16:06;12.30;97.60
19646;DHT22;9971;52.446;13.452;2023-03-01T01:21:09;12.40;95.80
19646;DHT22;9971;52.446;13.452;2023-03-01T01:26:12;12.50;94.70
19646;DHT22;9971;52.446;13.452;2023-03-01T01:31:12;12.70;93.40
19646;DHT22;9971;52.446;13.452;2023-03-01T01:36:15;12.80;92.30
19646;DHT22;9971;52.446;13.452;2023-03-01T01:41:17;12.90;91.00
19646;DHT22;9971;52.446;13.452;2023-03-01T01:46:25;13.00;89.80
19646;DHT22;9971;52.446;13.452;2023-03-01T01:51:25;13.10;88.20
19646;DHT22;9971;52.446;13.452;2023-03-01T01:56:25;13.30;87.10
19646;DHT22;9971;52.446;13.452;2023-03-01T02:01:28;13.30;85.90
19646;DHT22;9971;52.446;13.452;2023-03-01T02:06:32;13.40;84.20
19646;DHT22;9971;52.446;13.452;2023-03-01T02:11:33;13.50;82.10
19646;DHT22;9971;52.446;13.452;2023-03-01T02:16:35;13.60;81.20
19646;DHT22;9971;52.446;13.452;2023-03-01T02:21:48;13.70;79.90
19646;DHT22;9971;52.446;13.452;2023-03-01T02:26:50;13.70;79.00
19646;DHT22;9971;52.446;13.452;2023-03-01T02:31:52;13.80;77.60
19646;DHT22;9971;52.446;13.452;2023-03-01T02:36:55;13.90;76.50
19646;DHT22;9971;52.446;13.452;2023-03-01T02:41:56;14.00;75.50
19646;DHT22;9971;52.446;13.452;2023-03-01T02:46:58;14.00;75.10
19646;DHT22;9971;52.446;13.452;2023-03-01T02:57:19;14.10;73.40
19646;DHT22;9971;52.446;13.452;2023-03-01T03:02:23;14.20;72.60
19646;DHT22;9971;52.446;13.452;2023-03-01T03:07:24;14.20;72.00
19646;DHT22;9971;52.446;13.452;2023-03-01T03:12:26;14.30;71.60
19646;DHT22;9971;52.446;13.452;2023-03-01T03:17:28;14.30;71.20
19646;DHT22;9971;52.446;13.452;2023-03-01T03:22:31;14.40;70.80
19646;DHT22;9971;52.446;13.452;2023-03-01T03:27:33;14.40;70.40
19646;DHT22;9971;52.446;13.452;2023-03-01T03:32:36;14.40;70.10
19646;DHT22;9971;52.446;13.452;2023-03-01T03:37:38;14.50;69.40
19646;DHT22;9971;52.446;13.452;2023-03-01T03:42:57;14.50;68.90
19646;DHT22;9971;52.446;13.452;2023-03-01T03:47:59;14.50;68.30
19646;DHT22;9971;52.446;13.452;2023-03-01T03:53:02;14.60;67.80
19646;DHT22;9971;52.446;13.452;2023-03-01T03:58:04;14.60;66.90
19646;DHT22;9971;52.446;13.452;2023-03-01T04:03:09;14.60;66.40
19646;DHT22;9971;52.446;13.452;2023-03-01T04:08:11;14.60;66.00
19646;DHT22;9971;52.446;13.452;2023-03-01T04:13:14;14.70;65.60
19646;DHT22;9971;52.446;13.452;2023-03-01T04:18:15;14.70;65.30
19646;DHT22;9971;52.446;13.452;2023-03-01T04:23:18;14.70;65.20
19646;DHT22;9971;52.446;13.452;2023-03-01T04:28:20;14.70;65.20
19646;DHT22;9971;52.446;13.452;2023-03-01T04:33:22;14.70;64.90
19646;DHT22;9971;52.446;13.452;2023-03-01T04:38:24;14.70;64.50
19646;DHT22;9971;52.446;13.452;2023-03-01T04:43:26;14.70;64.20
19646;DHT22;9971;52.446;13.452;2023-03-01T04:48:29;14.80;64.20
19646;DHT22;9971;52.446;13.452;2023-03-01T04:53:31;14.80;63.70
19646;DHT22;9971;52.446;13.452;2023-03-01T04:58:33;14.80;63.90
19646;DHT22;9971;52.446;13.452;2023-03-01T05:03:35;14.80;63.40
19646;DHT22;9971;52.446;13.452;2023-03-01T05:08:39;14.80;62.50
19646;DHT22;9971;52.446;13.452;2023-03-01T05:13:41;14.80;62.10
19646;DHT22;9971;52.446;13.452;2023-03-01T05:18:43;14.90;62.00
19646;DHT22;9971;52.446;13.452;2023-03-01T05:23:45;14.90;62.10
19646;DHT22;9971;52.446;13.452;2023-03-01T05:28:47;14.90;62.40
19646;DHT22;9971;52.446;13.452;2023-03-01T05:33:49;14.90;62.70
19646;DHT22;9971;52.446;13.452;2023-03-01T05:38:51;14.90;62.70
19646;DHT22;9971;52.446;13.452;2023-03-01T05:43:54;14.90;62.60
19646;DHT22;9971;52.446;13.452;2023-03-01T05:48:56;14.90;62.40
19646;DHT22;9971;52.446;13.452;2023-03-01T05:53:59;14.90;62.60
19646;DHT22;9971;52.446;13.452;2023-03-01T05:59:01;14.90;63.80
19646;DHT22;9971;52.446;13.452;2023-03-01T06:04:04;15.00;63.70
19646;DHT22;9971;52.446;13.452;2023-03-01T06:09:06;15.00;63.90
19646;DHT22;9971;52.446;13.452;2023-03-01T06:14:07;15.00;64.80
19646;DHT22;9971;52.446;13.452;2023-03-01T06:19:10;15.00;64.90
19646;DHT22;9971;52.446;13.452;2023-03-01T06:24:12;15.10;79.50
19646;DHT22;9971;52.446;13.452;2023-03-01T06:29:15;15.10;93.30
19646;DHT22;9971;52.446;13.452;2023-03-01T06:34:17;15.20;99.10
19646;DHT22;9971;52.446;13.452;2023-03-01T06:39:20;15.20;99.90
19646;DHT22;9971;52.446;13.452;2023-03-01T06:44:22;15.20;99.90
19646;DHT22;9971;52.446;13.452;2023-03-01T06:49:24;15.20;99.90
19646;DHT22;9971;52.446;13.452;2023-03-01T06:54:28;15.20;99.90
19646;DHT22;9971;52.446;13.452;2023-03-01T06:59:29;15.20;99.90
19646;DHT22;9971;52.446;13.452;2023-03-01T07:04:32;15.20;99.90
19646;DHT22;9971;52.446;13.452;2023-03-01T07:09:33;15.20;99.90
19646;DHT22;9971;52.446;13.452;2023-03-01T07:14:36;15.20;99.90
19646;DHT22;9971;52.446;13.452;2023-03-01T07:19:38;15.20;99.90
19646;DHT22;9971;52.446;13.452;2023-03-01T07:24:41;15.10;99.90
19646;DHT22;9971;52.446;13.452;2023-03-01T07:29:43;15.10;99.90
19646;DHT22;9971;52.446;13.452;2023-03-01T07:34:46;15.10;99.90
19646;DHT22;9971;52.446;13.452;2023-03-01T07:39:48;15.20;99.90
19646;DHT22;9971;52.446;13.452;2023-03-01T07:44:51;15.20;99.90
19646;DHT22;9971;52.446;13.452;2023-03-01T07:49:53;15.20;99.90
19646;DHT22;9971;52.446;13.452;2023-03-01T07:54:56;15.20;99.90
19646;DHT22;9971;52.446;13.452;2023-03-01T07:59:58;15.10;99.90
19646;DHT22;9971;52.446;13.452;2023-03-01T08:05:01;15.20;99.90
19646;DHT22;9971;52.446;13.452;2023-03-01T08:10:03;15.20;99.90
19646;DHT22;9971;52.446;13.452;2023-03-01T08:15:06;15.20;99.90
19646;DHT22;9971;52.446;13.452;2023-03-01T08:20:10;15.20;99.90
19646;DHT22;9971;52.446;13.452;2023-03-01T08:25:12;15.20;99.90
19646;DHT22;9971;52.446;13.452;2023-03-01T08:30:15;15.20;99.90
19646;DHT22;9971;52.446;13.452;2023-03-01T08:35:17;15.20;99.90
19646;DHT22;9971;52.446;13.452;2023-03-01T08:40:20;15.20;99.90
19646;DHT22;9971;52.446;13.452;2023-03-01T08:45:22;15.30;99.90
19646;DHT22;9971;52.446;13.452;2023-03-01T08:50:25;15.30;99.90
19646;DHT22;9971;52.446;13.452;2023-03-01T08:55:27;15.30;99.90
19646;DHT22;9971;52.446;13.452;2023-03-01T09:00:30;15.30;99.90
19646;DHT22;9971;52.446;13.452;2023-03-01T09:05:32;15.30;99.90
19646;DHT22;9971;52.446;13.452;2023-03-01T09:10:36;15.30;99.90
19646;DHT22;9971;52.446;13.452;2023-03-01T09:15:37;15.30;99.90
19646;DHT22;9971;52.446;13.452;2023-03-01T09:20:39;15.40;99.90
19646;DHT22;9971;52.446;13.452;2023-03-01T09:25:41;15.40;99.90
19646;DHT22;9971;52.446;13.452;2023-03-01T09:30:44;15.40;99.90
19646;DHT22;9971;52.446;13.452;2023-03-01T09:35:46;15.40;99.90
19646;DHT22;9971;52.446;13.452;2023-03-01T09:40:49;15.40;99.90
19646;DHT22;9971;52.446;13.452;2023-03-01T09:45:51;15.40;99.90
19646;DHT22;9971;52.446;13.452;2023-03-01T09:50:53;15.40;99.90
19646;DHT22;9971;52.446;13.452;2023-03-01T09:55:59;15.40;99.90
19646;DHT22;9971;52.446;13.452;2023-03-01T10:00:59;15.50;99.90
19646;DHT22;9971;52.446;13.452;2023-03-01T10:06:06;15.50;99.90
19646;DHT22;9971;52.446;13.452;2023-03-01T10:11:15;15.50;99.90
19646;DHT22;9971;52.446;13.452;2023-03-01T10:16:15;15.50;99.90
19646;DHT22;9971;52.446;13.452;2023-03-01T10:21:17;15.60;99.90
19646;DHT22;9971;52.446;13.452;2023-03-01T10:26:28;15.60;99.90
19646;DHT22;9971;52.446;13.452;2023-03-01T10:31:27;15.60;99.90
19646;DHT22;9971;52.446;13.452;2023-03-01T10:36:28;15.60;99.90
19646;DHT22;9971;52.446;13.452;2023-03-01T10:41:30;15.60;99.90
19646;DHT22;9971;52.446;13.452;2023-03-01T10:46:34;15.70;99.90
19646;DHT22;9971;52.446;13.452;2023-03-01T10:51:35;15.70;99.90
19646;DHT22;9971;52.446;13.452;2023-03-01T10:56:48;15.60;99.90
19646;DHT22;9971;52.446;13.452;2023-03-01T11:02:00;15.70;99.90
19646;DHT22;9971;52.446;13.452;2023-03-01T11:06:57;15.70;99.90
19646;DHT22;9971;52.446;13.452;2023-03-01T11:11:55;15.70;99.90
19646;DHT22;9971;52.446;13.452;2023-03-01T11:17:10;15.70;99.90
19646;DHT22;9971;52.446;13.452;2023-03-01T11:22:12;15.70;99.90
19646;DHT22;9971;52.446;13.452;2023-03-01T11:27:21;15.80;99.90
19646;DHT22;9971;52.446;13.452;2023-03-01T11:32:20;15.80;99.90
19646;DHT22;9971;52.446;13.452;2023-03-01T11:42:43;15.80;99.90
19646;DHT22;9971;52.446;13.452;2023-03-01T11:48:01;15.90;99.90
19646;DHT22;9971;52.446;13.452;2023-03-01T11:53:11;15.90;99.90
19646;DHT22;9971;52.446;13.452;2023-03-01T11:58:22;15.90;99.90
19646;DHT22;9971;52.446;13.452;2023-03-01T12:03:25;15.90;99.90
19646;DHT22;9971;52.446;13.452;2023-03-01T12:08:32;16.00;99.90
19646;DHT22;9971;52.446;13.452;2023-03-01T12:13:54;16.00;99.90
19646;DHT22;9971;52.446;13.452;2023-03-01T12:19:02;16.00;99.90
19646;DHT22;9971;52.446;13.452;2023-03-01T12:24:07;16.10;99.90
19646;DHT22;9971;52.446;13.452;2023-03-01T12:29:18;16.10;99.90
19646;DHT22;9971;52.446;13.452;2023-03-01T12:34:31;16.20;99.90
19646;DHT22;9971;52.446;13.452;2023-03-01T12:45:24;16.20;99.90
19646;DHT22;9971;52.446;13.452;2023-03-01T12:50:11;16.20;99.90
19646;DHT22;9971;52.446;13.452;2023-03-01T12:55:19;16.30;99.90
19646;DHT22;9971;52.446;13.452;2023-03-01T13:00:32;16.30;99.90
19646;DHT22;9971;52.446;13.452;2023-03-01T13:05:39;16.30;99.90
19646;DHT22;9971;52.446;13.452;2023-03-01T13:10:48;16.40;99.90
19646;DHT22;9971;52.446;13.452;2023-03-01T13:15:48;16.40;99.90
19646;DHT22;9971;52.446;13.452;2023-03-01T13:20:51;16.40;99.90
19646;DHT22;9971;52.446;13.452;2023-03-01T13:26:01;16.40;99.90
19646;DHT22;9971;52.446;13.452;2023-03-01T13:31:02;16.50;99.90
19646;DHT22;9971;52.446;13.452;2023-03-01T13:36:04;16.50;99.90
19646;DHT22;9971;52.446;13.452;2023-03-01T13:41:06;16.50;99.90
19646;DHT22;9971;52.446;13.452;2023-03-01T13:46:11;16.50;99.90
19646;DHT22;9971;52.446;13.452;2023-03-01T13:51:11;16.60;99.90
19646;DHT22;9971;52.446;13.452;2023-03-01T13:56:15;16.60;99.90
19646;DHT22;9971;52.446;13.452;2023-03-01T14:01:34;16.20;65.80
19646;DHT22;9971;52.446;13.452;2023-03-01T14:06:35;14.60;58.30
19646;DHT22;9971;52.446;13.452;2023-03-01T14:22:24;14.10;58.00
19646;DHT22;9971;52.446;13.452;2023-03-01T14:27:29;13.80;56.60
19646;DHT22;9971;52.446;13.452;2023-03-01T14:32:29;13.70;56.40
19646;DHT22;9971;52.446;13.452;2023-03-01T14:37:32;13.80;56.00
19646;DHT22;9971;52.446;13.452;2023-03-01T14:42:34;13.60;56.40
19646;DHT22;9971;52.446;13.452;2023-03-01T14:47:36;13.70;58.00
19646;DHT22;9971;52.446;13.452;2023-03-01T14:52:38;13.70;57.30
19646;DHT22;9971;52.446;13.452;2023-03-01T14:57:42;13.80;60.30
19646;DHT22;9971;52.446;13.452;2023-03-01T15:02:41;13.90;57.90
19646;DHT22;9971;52.446;13.452;2023-03-01T15:07:43;13.90;57.20
19646;DHT22;9971;52.446;13.452;2023-03-01T15:12:46;13.80;55.20
19646;DHT22;9971;52.446;13.452;2023-03-01T15:17:53;13.60;54.40
19646;DHT22;9971;52.446;13.452;2023-03-01T15:22:54;14.00;55.00
19646;DHT22;9971;52.446;13.452;2023-03-01T15:27:56;13.90;54.90
19646;DHT22;9971;52.446;13.452;2023-03-01T15:33:42;13.70;54.30
19646;DHT22;9971;52.446;13.452;2023-03-01T15:38:33;13.40;54.50
19646;DHT22;9971;52.446;13.452;2023-03-01T15:43:41;13.20;56.50
19646;DHT22;9971;52.446;13.452;2023-03-01T15:48:45;13.10;58.50
19646;DHT22;9971;52.446;13.452;2023-03-01T15:53:48;12.90;59.10
19646;DHT22;9971;52.446;13.452;2023-03-01T15:58:48;12.60;61.20
19646;DHT22;9971;52.446;13.452;2023-03-01T16:03:51;12.20;61.80
19646;DHT22;9971;52.446;13.452;2023-03-01T16:08:53;11.70;62.00
19646;DHT22;9971;52.446;13.452;2023-03-01T16:13:55;11.30;63.20
19646;DHT22;9971;52.446;13.452;2023-03-01T16:18:58;10.90;65.50
19646;DHT22;9971;52.446;13.452;2023-03-01T16:24:00;10.70;66.80
19646;DHT22;9971;52.446;13.452;2023-03-01T16:29:03;10.40;69.70
19646;DHT22;9971;52.446;13.452;2023-03-01T16:34:05;10.30;71.20
19646;DHT22;9971;52.446;13.452;2023-03-01T16:39:08;10.10;72.60
19646;DHT22;9971;52.446;13.452;2023-03-01T16:44:10;9.80;74.90
19646;DHT22;9971;52.446;13.452;2023-03-01T16:49:12;9.60;75.80
19646;DHT22;9971;52.446;13.452;2023-03-01T16:54:14;9.40;77.90
19646;DHT22;9971;52.446;13.452;2023-03-01T16:59:17;9.30;78.00
19646;DHT22;9971;52.446;13.452;2023-03-01T17:04:19;9.30;78.60
19646;DHT22;9971;52.446;13.452;2023-03-01T17:09:22;9.00;80.80
19646;DHT22;9971;52.446;13.452;2023-03-01T17:14:24;8.70;83.00
19646;DHT22;9971;52.446;13.452;2023-03-01T17:19:27;8.60;85.30
19646;DHT22;9971;52.446;13.452;2023-03-01T17:24:32;8.30;87.00
19646;DHT22;9971;52.446;13.452;2023-03-01T17:29:31;8.10;88.90
19646;DHT22;9971;52.446;13.452;2023-03-01T17:34:33;7.90;91.40
19646;DHT22;9971;52.446;13.452;2023-03-01T17:39:35;7.70;91.90
19646;DHT22;9971;52.446;13.452;2023-03-01T17:44:38;7.50;92.20
19646;DHT22;9971;52.446;13.452;2023-03-01T17:49:40;7.40;93.20
19646;DHT22;9971;52.446;13.452;2023-03-01T17:54:42;7.20;94.30
19646;DHT22;9971;52.446;13.452;2023-03-01T17:59:45;7.00;95.60
19646;DHT22;9971;52.446;13.452;2023-03-01T18:04:48;6.90;96.20
19646;DHT22;9971;52.446;13.452;2023-03-01T18:09:50;6.70;97.70
19646;DHT22;9971;52.446;13.452;2023-03-01T18:14:53;6.50;98.60
19646;DHT22;9971;52.446;13.452;2023-03-01T18:19:55;6.40;99.70
19646;DHT22;9971;52.446;13.452;2023-03-01T18:24:57;6.30;99.90
19646;DHT22;9971;52.446;13.452;2023-03-01T18:29:59;6.50;99.90
19646;DHT22;9971;52.446;13.452;2023-03-01T18:35:02;6.50;99.90
19646;DHT22;9971;52.446;13.452;2023-03-01T18:40:05;6.50;99.90
19646;DHT22;9971;52.446;13.452;2023-03-01T18:45:08;6.30;99.90
19646;DHT22;9971;52.446;13.452;2023-03-01T18:50:10;6.20;99.90
19646;DHT22;9971;52.446;13.452;2023-03-01T18:55:13;6.20;99.90
19646;DHT22;9971;52.446;13.452;2023-03-01T19:00:16;6.20;99.90
19646;DHT22;9971;52.446;13.452;2023-03-01T19:05:18;6.10;99.90
19646;DHT22;9971;52.446;13.452;2023-03-01T19:10:20;6.00;99.90
19646;DHT22;9971;52.446;13.452;2023-03-01T19:15:22;5.90;99.90
19646;DHT22;9971;52.446;13.452;2023-03-01T19:20:25;5.90;99.90
19646;DHT22;9971;52.446;13.452;2023-03-01T19:25:27;5.70;99.90
19646;DHT22;9971;52.446;13.452;2023-03-01T19:30:30;5.60;99.90
19646;DHT22;9971;52.446;13.452;2023-03-01T19:35:33;5.50;99.90
19646;DHT22;9971;52.446;13.452;2023-03-01T19:40:34;5.40;99.90
19646;DHT22;9971;52.446;13.452;2023-03-01T19:45:37;5.30;99.90
19646;DHT22;9971;52.446;13.452;2023-03-01T19:50:41;5.30;99.90
19646;DHT22;9971;52.446;13.452;2023-03-01T19:55:41;5.30;99.90
19646;DHT22;9971;52.446;13.452;2023-03-01T20:00:44;5.20;99.90
19646;DHT22;9971;52.446;13.452;2023-03-01T20:05:46;5.10;99.90
19646;DHT22;9971;52.446;13.452;2023-03-01T20:10:49;4.90;99.90
19646;DHT22;9971;52.446;13.452;2023-03-01T20:15:51;4.80;99.90
19646;DHT22;9971;52.446;13.452;2023-03-01T20:20:53;4.70;99.90
19646;DHT22;9971;52.446;13.452;2023-03-01T20:26:03;4.60;99.90
19646;DHT22;9971;52.446;13.452;2023-03-01T20:31:05;4.60;99.90
19646;DHT22;9971;52.446;13.452;2023-03-01T20:36:06;4.50;99.90
19646;DHT22;9971;52.446;13.452;2023-03-01T20:41:09;4.40;99.90
19646;DHT22;9971;52.446;13.452;2023-03-01T20:46:11;4.50;99.90
19646;DHT22;9971;52.446;13.452;2023-03-01T20:51:13;4.40;99.90
19646;DHT22;9971;52.446;13.452;2023-03-01T20:56:16;4.40;99.90
19646;DHT22;9971;52.446;13.452;2023-03-01T21:01:19;4.30;99.90
19646;DHT22;9971;52.446;13.452;2023-03-01T21:06:21;4.30;99.90
19646;DHT22;9971;52.446;13.452;2023-03-01T21:11:24;4.30;99.90
19646;DHT22;9971;52.446;13.452;2023-03-01T21:16:26;4.30;99.90
19646;DHT22;9971;52.446;13.452;2023-03-01T21:21:30;4.20;99.90
19646;DHT22;9971;52.446;13.452;2023-03-01T21:26:33;4.10;99.90
19646;DHT22;9971;52.446;13.452;2023-03-01T21:31:36;3.90;99.90
19646;DHT22;9971;52.446;13.452;2023-03-01T21:36:39;3.90;99.90
19646;DHT22;9971;52.446;13.452;2023-03-01T21:41:42;3.90;99.90
19646;DHT22;9971;52.446;13.452;2023-03-01T21:46:45;3.90;99.90
19646;DHT22;9971;52.446;13.452;2023-03-01T21:51:47;3.90;99.90
19646;DHT22;9971;52.446;13.452;2023-03-01T21:56:50;3.80;99.90
19646;DHT22;9971;52.446;13.452;2023-03-01T22:01:53;3.80;99.90
19646;DHT22;9971;52.446;13.452;2023-03-01T22:06:56;3.80;99.90
19646;DHT22;9971;52.446;13.452;2023-03-01T22:11:59;3.70;99.90
19646;DHT22;9971;52.446;13.452;2023-03-01T22:17:03;3.70;99.90
19646;DHT22;9971;52.446;13.452;2023-03-01T22:22:05;3.60;99.90
19646;DHT22;9971;52.446;13.452;2023-03-01T22:27:08;3.60;99.90
19646;DHT22;9971;52.446;13.452;2023-03-01T22:32:10;3.50;99.90
19646;DHT22;9971;52.446;13.452;2023-03-01T22:37:13;3.50;99.90
19646;DHT22;9971;52.446;13.452;2023-03-01T22:42:15;3.50;99.90
19646;DHT22;9971;52.446;13.452;2023-03-01T22:47:18;3.50;99.90
19646;DHT22;9971;52.446;13.452;2023-03-01T22:52:20;3.40;99.90
19646;DHT22;9971;52.446;13.452;2023-03-01T22:57:22;3.40;99.90
19646;DHT22;9971;52.446;13.452;2023-03-01T23:02:25;3.40;99.90
19646;DHT22;9971;52.446;13.452;2023-03-01T23:07:28;3.30;99.90
19646;DHT22;9971;52.446;13.452;2023-03-01T23:12:30;3.20;99.90
19646;DHT22;9971;52.446;13.452;2023-03-01T23:17:32;3.20;99.90
19646;DHT22;9971;52.446;13.452;2023-03-01T23:22:35;3.10;99.90
19646;DHT22;9971;52.446;13.452;2023-03-01T23:27:37;3.00;99.90
19646;DHT22;9971;52.446;13.452;2023-03-01T23:32:40;3.00;99.90
19646;DHT22;9971;52.446;13.452;2023-03-01T23:37:43;3.00;99.90
19646;DHT22;9971;52.446;13.452;2023-03-01T23:42:46;3.00;99.90
19646;DHT22;9971;52.446;13.452;2023-03-01T23:47:49;2.90;99.90
19646;DHT22;9971;52.446;13.452;2023-03-01T23:52:52;3.00;99.90
19646;DHT22;9971;52.446;13.452;2023-03-01T23:57:55;2.90;99.90
